Time;durP1;ratioP1;P1;durP2;ratioP2;P2;SDS_P1;SDS_P2;PMS_P1;PMS_P2;Temp;Humidity;BMP_temperature;BMP_pressure;BME280_temperature;BME280_humidity;BME280_pressure;Samples;Min_cycle;Max_cycle;Signal;HPM_P1;HPM_P2
2022/08/08 00:01:12;;;;;;;1.50;1.40;;;14.50;94.30;;;;;;5055033;28;20453;-86
2022/08/08 00:03:59;;;;;;;1.23;1.13;;;14.40;93.90;;;;;;5054758;28;20453;-86
2022/08/08 00:06:46;;;;;;;1.20;1.10;;;14.30;93.90;;;;;;5055012;28;20458;-87
2022/08/08 00:09:24;;;;;;;1.00;0.90;;;14.30;95.00;;;;;;5054009;28;20473;-85
2022/08/08 00:11:58;;;;;;;1.73;1.30;;;14.30;95.60;;;;;;5054936;28;20446;-85
2022/08/08 00:14:39;;;;;;;0.93;0.90;;;14.30;96.30;;;;;;5054682;28;20458;-86
2022/08/08 00:17:11;;;;;;;2.17;1.50;;;14.20;95.60;;;;;;5052319;28;20446;-86
2022/08/08 00:19:44;;;;;;;2.87;1.20;;;14.20;96.00;;;;;;5054620;28;20501;-87
2022/08/08 00:22:16;;;;;;;1.03;0.93;;;14.10;95.70;;;;;;5054513;28;20438;-86
2022/08/08 00:24:47;;;;;;;2.50;1.40;;;14.20;97.60;;;;;;5053483;28;20446;-84
2022/08/08 00:27:18;;;;;;;1.63;1.20;;;14.20;97.70;;;;;;5054664;28;20471;-86
2022/08/08 00:29:51;;;;;;;2.47;1.00;;;14.10;97.50;;;;;;5054665;28;20802;-85
2022/08/08 00:32:23;;;;;;;1.80;1.17;;;14.10;97.10;;;;;;5054475;28;20457;-85
2022/08/08 00:35:10;;;;;;;1.43;1.03;;;14.10;97.50;;;;;;5054568;28;20450;-86
2022/08/08 00:37:42;;;;;;;1.33;1.23;;;14.00;98.10;;;;;;5054440;28;20449;-86
2022/08/08 00:40:35;;;;;;;1.70;1.30;;;14.00;96.40;;;;;;5051562;28;20708;-86
2022/08/08 00:43:31;;;;;;;1.33;1.20;;;14.00;97.40;;;;;;5054346;28;20450;-86
2022/08/08 00:46:15;;;;;;;1.30;1.00;;;14.00;96.30;;;;;;5052701;28;20516;-86
2022/08/08 00:49:04;;;;;;;1.67;1.10;;;14.00;97.30;;;;;;5054332;28;20793;-86
2022/08/08 00:52:11;;;;;;;2.60;1.43;;;13.90;98.50;;;;;;5052670;28;20461;-85
2022/08/08 00:55:16;;;;;;;2.00;1.30;;;13.90;97.30;;;;;;5046185;28;20985;-84
2022/08/08 00:58:23;;;;;;;1.80;1.27;;;13.80;97.40;;;;;;5054036;28;20482;-87
2022/08/08 01:00:57;;;;;;;1.83;1.10;;;13.90;97.90;;;;;;5054034;28;20446;-87
2022/08/08 01:03:54;;;;;;;1.63;1.33;;;13.90;98.10;;;;;;5053787;28;20470;-86
2022/08/08 01:06:49;;;;;;;1.40;1.27;;;13.90;98.30;;;;;;5053873;28;20446;-88
2022/08/08 01:09:59;;;;;;;1.97;1.47;;;13.90;99.20;;;;;;5052655;28;20957;-85
2022/08/08 01:12:47;;;;;;;2.50;1.30;;;13.90;99.80;;;;;;5032780;28;20454;-87
2022/08/08 01:15:51;;;;;;;1.33;1.10;;;13.80;99.90;;;;;;5053727;28;20451;-85
2022/08/08 01:18:44;;;;;;;1.57;1.47;;;13.80;99.90;;;;;;5053338;28;20450;-85
2022/08/08 01:21:24;;;;;;;2.70;1.50;;;13.70;99.90;;;;;;5053693;28;20442;-85
2022/08/08 01:24:33;;;;;;;2.30;1.30;;;13.60;99.90;;;;;;5053666;28;20801;-86
2022/08/08 01:27:22;;;;;;;2.00;1.13;;;13.60;99.90;;;;;;5053576;28;20498;-86
2022/08/08 01:30:39;;;;;;;3.70;1.10;;;13.50;99.90;;;;;;5053540;28;20468;-85
2022/08/08 01:33:34;;;;;;;1.60;1.30;;;13.60;99.90;;;;;;5053386;28;20446;-86
2022/08/08 01:36:40;;;;;;;2.63;1.17;;;13.60;99.90;;;;;;5053311;28;20451;-85
2022/08/08 01:39:25;;;;;;;2.17;1.10;;;13.50;99.90;;;;;;5053039;28;20763;-86
2022/08/08 01:41:59;;;;;;;2.97;1.43;;;13.50;99.90;;;;;;5053322;28;20454;-85
2022/08/08 01:44:41;;;;;;;1.40;1.17;;;13.50;99.90;;;;;;5053216;28;20486;-85
2022/08/08 01:47:20;;;;;;;1.63;1.20;;;13.50;99.90;;;;;;5053135;28;20446;-85
2022/08/08 01:49:55;;;;;;;1.53;1.30;;;13.50;99.90;;;;;;5053162;28;20461;-87
2022/08/08 01:52:36;;;;;;;4.10;1.27;;;13.50;99.90;;;;;;5053106;28;20450;-87
2022/08/08 01:55:12;;;;;;;3.87;1.40;;;13.40;99.90;;;;;;5052053;28;20450;-87
2022/08/08 01:57:49;;;;;;;1.33;1.23;;;13.40;99.90;;;;;;5052805;28;20831;-85
2022/08/08 02:00:19;;;;;;;1.73;1.20;;;13.40;99.90;;;;;;5053047;28;20841;-86
2022/08/08 02:03:17;;;;;;;3.60;1.50;;;13.30;99.90;;;;;;5053144;28;20447;-86
2022/08/08 02:05:55;;;;;;;2.43;1.40;;;13.20;99.90;;;;;;5052808;28;20462;-86
2022/08/08 02:08:34;;;;;;;2.03;1.30;;;13.20;99.90;;;;;;5052910;28;20454;-86
2022/08/08 02:11:09;;;;;;;1.43;1.23;;;13.20;99.90;;;;;;5051869;28;20442;-84
2022/08/08 02:13:42;;;;;;;1.53;1.20;;;13.10;99.90;;;;;;5052841;28;20464;-86
2022/08/08 02:16:16;;;;;;;1.27;1.10;;;13.10;99.90;;;;;;5052321;28;20960;-86
2022/08/08 02:18:51;;;;;;;1.27;1.17;;;13.10;99.90;;;;;;5052286;28;20992;-86
2022/08/08 02:24:15;;;;;;;3.10;1.40;;;13.00;99.90;;;;;;5052787;28;20434;-85
2022/08/08 02:26:50;;;;;;;1.50;1.20;;;13.00;99.90;;;;;;5052682;28;20840;-86
2022/08/08 02:29:44;;;;;;;3.10;1.77;;;12.90;99.90;;;;;;5052666;28;20446;-86
2022/08/08 02:32:26;;;;;;;1.60;1.30;;;12.90;99.90;;;;;;5052590;28;20960;-86
2022/08/08 02:35:35;;;;;;;1.70;1.27;;;12.90;99.90;;;;;;5052757;28;20457;-86
2022/08/08 02:38:33;;;;;;;2.70;1.77;;;12.80;99.90;;;;;;5052131;28;20462;-87
2022/08/08 02:41:25;;;;;;;2.50;1.10;;;12.80;99.90;;;;;;5051155;28;20490;-85
2022/08/08 02:44:28;;;;;;;1.60;1.50;;;12.80;99.90;;;;;;5049133;28;20452;-85
2022/08/08 02:47:20;;;;;;;2.30;1.50;;;12.80;99.90;;;;;;5052471;28;20450;-87
2022/08/08 02:50:28;;;;;;;4.40;1.60;;;12.70;99.90;;;;;;5052482;28;20969;-86
2022/08/08 02:53:08;;;;;;;1.70;1.30;;;12.70;99.90;;;;;;5052596;28;20465;-85
2022/08/08 02:56:09;;;;;;;2.03;1.23;;;12.60;99.90;;;;;;5051143;28;20453;-86
2022/08/08 02:59:37;;;;;;;4.77;1.70;;;12.60;99.90;;;;;;5052203;28;20478;-85
2022/08/08 03:02:45;;;;;;;2.83;1.53;;;12.50;99.90;;;;;;5052433;28;20449;-86
2022/08/08 03:05:35;;;;;;;1.90;1.33;;;12.50;99.90;;;;;;5052372;28;20446;-84
2022/08/08 03:09:01;;;;;;;1.20;1.10;;;12.40;99.90;;;;;;5052664;28;20450;-85
2022/08/08 03:12:01;;;;;;;2.03;1.23;;;12.50;99.90;;;;;;5051060;28;20450;-85
2022/08/08 03:14:50;;;;;;;2.30;1.10;;;12.40;99.90;;;;;;5052470;28;20481;-86
2022/08/08 03:17:22;;;;;;;2.13;1.43;;;12.40;99.90;;;;;;5052181;28;20454;-85
2022/08/08 03:20:00;;;;;;;1.70;1.17;;;12.40;99.90;;;;;;5052079;28;20492;-85
2022/08/08 03:22:27;;;;;;;1.73;1.20;;;;;;;;;;5052352;28;20450;-86
2022/08/08 03:24:56;;;;;;;1.57;1.10;;;12.30;99.90;;;;;;5050933;28;20539;-85
2022/08/08 03:27:28;;;;;;;5.13;1.53;;;12.30;99.90;;;;;;5053831;28;20467;-85
2022/08/08 03:30:02;;;;;;;1.90;1.50;;;12.30;99.90;;;;;;5055972;28;20458;-86
2022/08/08 03:35:14;;;;;;;3.87;1.23;;;;;;;;;;5056758;28;20437;-87
2022/08/08 03:37:41;;;;;;;1.53;1.17;;;;;;;;;;5056078;28;20462;-86
2022/08/08 03:40:10;;;;;;;1.40;1.30;;;12.20;99.90;;;;;;5054549;28;20490;-85
2022/08/08 03:42:38;;;;;;;1.70;1.10;;;;;;;;;;5055814;28;20922;-87
2022/08/08 03:45:17;;;;;;;2.13;1.37;;;12.10;99.90;;;;;;5061993;28;20439;-85
2022/08/08 03:47:44;;;;;;;1.53;1.43;;;;;;;;;;5081090;28;20439;-86
2022/08/08 03:50:18;;;;;;;1.53;1.43;;;12.10;99.90;;;;;;5062731;28;20453;-85
2022/08/08 03:52:45;;;;;;;2.40;1.47;;;;;;;;;;5055673;28;20453;-86
2022/08/08 03:55:16;;;;;;;1.33;1.20;;;12.20;99.90;;;;;;5054164;28;20457;-87
2022/08/08 03:57:47;;;;;;;2.13;1.70;;;12.20;99.90;;;;;;5055180;28;20478;-86
2022/08/08 04:00:15;;;;;;;5.20;1.73;;;12.20;99.90;;;;;;5055137;28;20863;-86
2022/08/08 04:02:43;;;;;;;3.00;2.10;;;;;;;;;;5055649;28;20450;-86
2022/08/08 04:05:10;;;;;;;2.30;1.40;;;12.10;99.90;;;;;;5055828;28;20451;-86
2022/08/08 04:07:38;;;;;;;1.73;1.50;;;12.10;99.90;;;;;;5054851;28;20454;-86
2022/08/08 04:10:07;;;;;;;2.57;1.60;;;12.10;99.90;;;;;;5051235;28;20455;-87
2022/08/08 04:12:35;;;;;;;3.10;1.60;;;;;;;;;;5055087;28;20446;-87
2022/08/08 04:15:03;;;;;;;4.03;1.47;;;;;;;;;;5054877;28;20450;-86
2022/08/08 04:17:30;;;;;;;1.80;1.70;;;;;;;;;;5054842;28;20446;-87
2022/08/08 04:19:57;;;;;;;2.73;1.50;;;;;;;;;;5054766;28;20486;-86
2022/08/08 04:22:26;;;;;;;3.43;1.83;;;;;;;;;;5054980;28;20469;-86
2022/08/08 04:24:54;;;;;;;2.20;1.60;;;;;;;;;;5054050;28;20461;-86
2022/08/08 04:27:21;;;;;;;2.07;1.60;;;;;;;;;;5056941;28;20532;-86
2022/08/08 04:29:50;;;;;;;2.00;1.80;;;12.10;99.90;;;;;;5054943;28;20442;-86
2022/08/08 04:32:17;;;;;;;1.70;1.50;;;;;;;;;;5053157;28;20458;-86
2022/08/08 04:34:45;;;;;;;2.90;2.20;;;;;;;;;;5054593;28;20817;-86
2022/08/08 04:37:12;;;;;;;1.47;1.37;;;;;;;;;;5054163;28;20461;-86
2022/08/08 04:39:39;;;;;;;1.97;1.77;;;;;;;;;;5050343;28;20544;-87
2022/08/08 04:42:06;;;;;;;2.10;1.73;;;;;;;;;;5054714;28;20454;-87
2022/08/08 04:44:34;;;;;;;1.93;1.73;;;;;;;;;;5054331;28;20466;-86
2022/08/08 04:47:02;;;;;;;3.93;2.27;;;12.30;99.90;;;;;;5054320;28;20450;-87
2022/08/08 04:49:29;;;;;;;3.50;2.00;;;;;;;;;;5054237;28;20450;-87
2022/08/08 04:51:56;;;;;;;2.43;1.90;;;;;;;;;;5057557;28;20449;-86
2022/08/08 04:54:23;;;;;;;3.70;2.53;;;;;;;;;;5054672;28;20455;-85
2022/08/08 04:56:50;;;;;;;2.40;2.10;;;;;;;;;;5054364;28;20569;-86
2022/08/08 04:59:17;;;;;;;5.43;2.07;;;;;;;;;;5055193;28;21011;-85
2022/08/08 05:01:45;;;;;;;2.27;1.93;;;;;;;;;;5054769;28;20490;-84
2022/08/08 05:04:13;;;;;;;2.40;1.77;;;12.70;99.90;;;;;;5057689;28;20458;-84
2022/08/08 05:06:40;;;;;;;1.83;1.53;;;;;;;;;;5055636;28;20809;-86
2022/08/08 05:09:07;;;;;;;3.20;1.70;;;;;;;;;;5054060;28;20465;-85
2022/08/08 05:11:34;;;;;;;2.50;2.10;;;;;;;;;;5053085;28;20476;-86
2022/08/08 05:14:01;;;;;;;3.10;1.77;;;;;;;;;;5053825;28;20446;-85
2022/08/08 05:16:29;;;;;;;3.00;2.00;;;13.30;99.90;;;;;;5054453;28;20828;-85
2022/08/08 05:18:56;;;;;;;2.80;1.90;;;;;;;;;;5054121;28;20447;-85
2022/08/08 05:21:24;;;;;;;1.40;1.30;;;13.40;99.90;;;;;;5053600;28;20501;-87
2022/08/08 05:23:53;;;;;;;2.40;1.60;;;;;;;;;;5053954;28;20459;-84
2022/08/08 05:26:20;;;;;;;3.70;1.80;;;;;;;;;;5053854;28;20498;-86
2022/08/08 05:28:47;;;;;;;3.40;2.07;;;;;;;;;;5054666;28;20454;-86
2022/08/08 05:31:14;;;;;;;3.00;2.00;;;;;;;;;;5054143;28;20454;-85
2022/08/08 05:33:42;;;;;;;6.00;2.47;;;;;;;;;;5053574;28;20455;-85
2022/08/08 05:36:10;;;;;;;2.73;2.10;;;14.70;99.90;;;;;;5053700;28;20804;-86
2022/08/08 05:38:46;;;;;;;2.57;2.37;;;15.00;99.90;;;;;;5053574;28;20469;-86
2022/08/08 05:41:16;;;;;;;4.70;2.20;;;15.60;99.90;;;;;;5052330;28;21062;-87
2022/08/08 05:43:46;;;;;;;6.13;2.37;;;16.30;99.90;;;;;;5053841;28;20803;-86
2022/08/08 05:46:13;;;;;;;3.93;2.40;;;;;;;;;;5053750;28;20446;-86
2022/08/08 05:48:41;;;;;;;2.33;2.10;;;;;;;;;;5053215;28;20451;-85
2022/08/08 05:51:08;;;;;;;2.37;2.17;;;;;;;;;;5052820;28;20809;-87
2022/08/08 05:53:35;;;;;;;2.30;2.10;;;;;;;;;;5053046;28;20454;-86
2022/08/08 05:56:05;;;;;;;2.10;1.90;;;19.30;88.30;;;;;;5052204;28;20819;-87
2022/08/08 05:58:33;;;;;;;2.30;2.13;;;19.80;87.10;;;;;;5048190;28;20482;-86
2022/08/08 06:01:01;;;;;;;2.37;2.17;;;20.10;83.90;;;;;;5053018;28;20824;-87
2022/08/08 06:03:29;;;;;;;2.60;2.10;;;20.40;82.90;;;;;;5053076;28;20454;-86
2022/08/08 06:05:58;;;;;;;4.33;2.30;;;20.70;80.30;;;;;;5052963;28;20504;-87
2022/08/08 06:08:27;;;;;;;2.87;2.30;;;20.90;80.10;;;;;;5053028;28;20516;-88
2022/08/08 06:10:56;;;;;;;2.53;2.10;;;21.30;80.10;;;;;;5051673;28;20450;-88
2022/08/08 06:13:27;;;;;;;2.87;2.67;;;21.90;75.50;;;;;;5052925;28;20470;-88
2022/08/08 06:15:54;;;;;;;2.17;2.00;;;;;;;;;;5052634;28;20891;-87
2022/08/08 06:18:23;;;;;;;2.20;2.00;;;22.20;73.60;;;;;;5052771;28;20446;-87
2022/08/08 06:20:53;;;;;;;3.23;2.37;;;22.50;71.60;;;;;;5058026;28;20517;-88
2022/08/08 06:23:20;;;;;;;3.13;2.10;;;;;;;;;;5078284;28;20455;-87
2022/08/08 06:25:55;;;;;;;5.33;3.00;;;22.50;70.00;;;;;;5063416;28;20546;-88
2022/08/08 06:28:31;;;;;;;8.43;2.80;;;22.50;69.20;;;;;;5052511;28;20957;-87
2022/08/08 06:31:00;;;;;;;4.37;2.27;;;22.70;68.90;;;;;;5051298;28;20478;-87
2022/08/08 06:33:35;;;;;;;2.50;2.20;;;23.00;67.90;;;;;;5052666;28;20450;-90
2022/08/08 06:36:03;;;;;;;2.90;2.60;;;23.50;65.20;;;;;;5052562;28;20441;-87
2022/08/08 06:38:37;;;;;;;2.43;2.23;;;22.80;64.30;;;;;;5052729;28;20512;-89
2022/08/08 06:41:06;;;;;;;2.60;2.40;;;22.60;66.60;;;;;;5051448;28;20490;-88
2022/08/08 06:43:37;;;;;;;3.53;2.23;;;23.30;65.60;;;;;;5052606;28;20815;-88
2022/08/08 06:46:05;;;;;;;7.23;2.37;;;23.60;62.90;;;;;;5052818;28;20568;-89
2022/08/08 06:48:32;;;;;;;2.20;2.00;;;;;;;;;;5052647;28;20820;-91
2022/08/08 06:50:59;;;;;;;2.77;2.27;;;;;;;;;;5052574;28;20450;-88
2022/08/08 06:53:27;;;;;;;5.37;2.37;;;;;;;;;;5052529;28;20454;-87
2022/08/08 06:55:54;;;;;;;2.30;2.10;;;;;;;;;;5051371;28;20446;-88
2022/08/08 06:58:21;;;;;;;2.60;2.40;;;;;;;;;;5052337;28;20482;-87
2022/08/08 07:00:51;;;;;;;2.90;2.40;;;24.10;63.90;;;;;;5053214;28;20489;-88
2022/08/08 07:03:30;;;;;;;3.10;2.70;;;24.20;62.20;;;;;;5056424;28;20511;-90
2022/08/08 07:06:00;;;;;;;2.80;2.60;;;23.80;63.10;;;;;;5056365;28;20446;-87
2022/08/08 07:08:33;;;;;;;2.80;2.40;;;24.00;64.00;;;;;;5056217;28;20457;-88
2022/08/08 07:11:03;;;;;;;4.47;2.63;;;24.20;63.50;;;;;;5055086;28;20523;-88
2022/08/08 07:13:37;;;;;;;2.80;2.50;;;24.20;63.70;;;;;;5056170;28;20455;-87
2022/08/08 07:16:12;;;;;;;3.27;2.43;;;24.40;63.50;;;;;;5055997;28;20450;-86
2022/08/08 07:18:51;;;;;;;3.00;2.70;;;24.90;61.00;;;;;;5056006;28;20508;-88
2022/08/08 07:21:22;;;;;;;5.63;2.63;;;25.20;59.90;;;;;;5055823;28;20509;-91
2022/08/08 07:23:54;;;;;;;3.13;2.50;;;25.50;58.90;;;;;;5055951;28;20438;-89
2022/08/08 07:26:22;;;;;;;3.30;3.00;;;25.60;60.10;;;;;;5053166;28;20450;-88
2022/08/08 07:28:49;;;;;;;2.93;2.73;;;;;;;;;;5055422;28;20445;-89
2022/08/08 07:31:19;;;;;;;3.10;2.40;;;25.10;61.70;;;;;;5055778;28;20929;-89
2022/08/08 07:33:48;;;;;;;3.63;2.37;;;25.10;61.90;;;;;;5055186;28;20454;-88
2022/08/08 07:36:15;;;;;;;5.17;2.50;;;;;;;;;;5055629;28;20803;-87
2022/08/08 07:38:46;;;;;;;2.90;2.70;;;25.50;60.00;;;;;;5055664;28;20454;-87
2022/08/08 07:41:14;;;;;;;3.50;3.20;;;25.30;59.50;;;;;;5054300;28;20497;-89
2022/08/08 07:43:41;;;;;;;4.10;3.27;;;;;;;;;;5055626;28;20946;-89
2022/08/08 07:46:08;;;;;;;5.93;2.67;;;;;;;;;;5055123;28;20854;-88
2022/08/08 07:48:37;;;;;;;3.00;2.70;;;25.30;59.30;;;;;;5055666;28;20447;-87
2022/08/08 07:51:04;;;;;;;5.00;2.70;;;;;;;;;;5055484;28;20521;-87
2022/08/08 07:53:36;;;;;;;4.67;2.77;;;25.10;60.40;;;;;;5055487;28;20953;-88
2022/08/08 07:56:04;;;;;;;3.43;2.90;;;;;;;;;;5054029;28;20450;-87
2022/08/08 07:58:34;;;;;;;2.73;2.53;;;26.90;55.70;;;;;;5055292;28;20540;-88
2022/08/08 08:01:05;;;;;;;3.00;2.57;;;27.40;54.20;;;;;;5055216;28;20481;-87
2022/08/08 08:03:36;;;;;;;3.77;2.37;;;26.90;54.80;;;;;;5055479;28;20500;-88
2022/08/08 08:06:06;;;;;;;2.50;2.30;;;27.00;54.90;;;;;;5055413;28;20450;-91
2022/08/08 08:08:40;;;;;;;2.60;2.40;;;26.40;55.30;;;;;;5052425;28;20443;-88
2022/08/08 08:11:12;;;;;;;2.87;2.30;;;26.60;57.40;;;;;;5053694;28;20457;-86
2022/08/08 08:13:44;;;;;;;3.23;2.43;;;26.80;54.50;;;;;;5054292;28;20553;-87
2022/08/08 08:16:18;;;;;;;2.60;2.40;;;27.30;53.50;;;;;;5055282;28;20455;-90
2022/08/08 08:18:47;;;;;;;2.60;2.40;;;26.70;54.30;;;;;;5055185;28;20450;-89
2022/08/08 08:21:16;;;;;;;2.50;2.30;;;27.10;53.70;;;;;;5055129;28;20486;-88
2022/08/08 08:23:43;;;;;;;4.63;2.50;;;;;;;;;;5055084;28;20472;-88
2022/08/08 08:26:12;;;;;;;3.90;2.40;;;;;;;;;;5054835;28;20446;-90
2022/08/08 08:28:39;;;;;;;4.60;2.87;;;;;;;;;;5054995;28;20541;-89
2022/08/08 08:31:07;;;;;;;2.77;2.57;;;;;;;;;;5056813;28;20454;-89
2022/08/08 08:33:34;;;;;;;2.47;2.27;;;;;;;;;;5055941;28;20823;-90
2022/08/08 08:36:02;;;;;;;2.80;2.60;;;;;;;;;;5055015;28;20957;-90
2022/08/08 08:38:30;;;;;;;2.50;2.30;;;27.70;50.10;;;;;;5054934;28;20439;-88
2022/08/08 08:40:57;;;;;;;2.43;2.23;;;;;;;;;;5054084;28;20494;-88
2022/08/08 08:43:25;;;;;;;2.10;2.00;;;;;;;;;;5055261;28;20784;-89
2022/08/08 08:45:54;;;;;;;3.30;2.43;;;27.60;49.60;;;;;;5055877;28;20450;-92
2022/08/08 08:48:21;;;;;;;2.30;2.10;;;;;;;;;;5054414;28;20501;-88
2022/08/08 08:50:50;;;;;;;3.40;2.67;;;27.40;50.00;;;;;;5056030;28;20455;-91
2022/08/08 08:53:18;;;;;;;2.60;2.40;;;;;;;;;;5054780;28;20454;-91
2022/08/08 08:55:46;;;;;;;3.43;2.27;;;27.80;48.70;;;;;;5053454;28;20457;-89
2022/08/08 08:58:24;;;;;;;2.87;2.67;;;27.90;49.10;;;;;;5053920;28;20486;-88
2022/08/08 09:00:52;;;;;;;2.40;2.10;;;;;;;;;;5054402;28;20442;-90
2022/08/08 09:03:22;;;;;;;2.73;2.50;;;27.50;50.20;;;;;;5073655;28;20448;-89
2022/08/08 09:05:50;;;;;;;3.03;2.70;;;;;;;;;;5077399;28;20441;-87
2022/08/08 09:08:20;;;;;;;2.50;2.30;;;28.10;49.80;;;;;;5054245;28;20462;-93
2022/08/08 09:10:49;;;;;;;2.87;2.27;;;27.10;51.20;;;;;;5053457;28;20473;-88
2022/08/08 09:13:17;;;;;;;2.47;2.33;;;27.40;49.30;;;;;;5054561;28;20450;-87
2022/08/08 09:15:44;;;;;;;3.23;2.47;;;;;;;;;;5053848;28;20446;-89
2022/08/08 09:18:12;;;;;;;3.00;2.70;;;28.70;47.30;;;;;;5054133;28;20454;-88
2022/08/08 09:20:39;;;;;;;2.30;2.10;;;29.60;44.80;;;;;;5053923;28;20442;-87
2022/08/08 09:23:07;;;;;;;3.70;2.10;;;30.10;44.50;;;;;;5053705;28;20500;-90
2022/08/08 09:25:37;;;;;;;6.00;3.47;;;29.70;43.20;;;;;;5052509;28;20895;-89
2022/08/08 09:28:05;;;;;;;6.13;2.03;;;29.30;43.10;;;;;;5053534;28;20458;-88
2022/08/08 09:30:34;;;;;;;3.10;1.80;;;29.60;42.60;;;;;;5053656;28;20450;-89
2022/08/08 09:33:04;;;;;;;2.37;2.10;;;29.90;37.60;;;;;;5053744;28;20453;-93
2022/08/08 09:35:32;;;;;;;2.20;2.00;;;30.10;36.90;;;;;;5053525;28;20526;-90
2022/08/08 09:38:02;;;;;;;3.40;2.03;;;29.40;37.90;;;;;;5053756;28;20451;-87
2022/08/08 09:40:30;;;;;;;2.80;2.23;;;30.20;37.10;;;;;;5052535;28;20450;-91
2022/08/08 09:43:09;;;;;;;2.20;2.00;;;29.70;38.80;;;;;;5053856;28;20513;-89
2022/08/08 09:45:45;;;;;;;1.87;1.77;;;30.30;36.00;;;;;;5053237;28;20442;-89
2022/08/08 09:48:12;;;;;;;1.73;1.60;;;;;;;;;;5054204;28;20441;-88
2022/08/08 09:50:41;;;;;;;2.10;1.90;;;29.90;34.80;;;;;;5054203;28;20454;-92
2022/08/08 09:53:12;;;;;;;2.07;1.90;;;30.20;34.50;;;;;;5053585;28;20807;-90
2022/08/08 09:55:39;;;;;;;1.97;1.80;;;29.70;35.60;;;;;;5052348;28;20473;-88
2022/08/08 09:58:14;;;;;;;1.87;1.67;;;29.40;35.80;;;;;;5054029;28;20477;-89
2022/08/08 10:00:43;;;;;;;6.53;2.00;;;;;;;;;;5053978;28;20450;-88
2022/08/08 10:03:14;;;;;;;2.33;2.13;;;29.60;40.60;;;;;;5053460;28;21016;-90
2022/08/08 10:05:42;;;;;;;50.30;45.47;;;;;;;;;;5053659;28;20443;-91
2022/08/08 10:08:09;;;;;;;5.60;4.73;;;;;;;;;;5054502;28;20442;-87
2022/08/08 10:10:37;;;;;;;230.60;125.90;;;28.70;59.00;;;;;;5051844;28;20455;-88
2022/08/08 10:13:18;;;;;;;6.53;6.13;;;29.70;58.60;;;;;;5053113;28;20446;-88
2022/08/08 10:15:46;;;;;;;3.10;2.00;;;29.80;46.00;;;;;;5054588;28;20450;-93
2022/08/08 10:18:14;;;;;;;2.77;2.20;;;;;;;;;;5055068;28;20450;-90
2022/08/08 10:20:44;;;;;;;2.40;2.20;;;29.30;46.80;;;;;;5053626;28;20870;-90
2022/08/08 10:23:14;;;;;;;3.00;2.30;;;29.80;48.70;;;;;;5052929;28;20501;-89
2022/08/08 10:25:43;;;;;;;2.97;2.77;;;;;;;;;;5051602;28;20451;-86
2022/08/08 10:28:17;;;;;;;7.13;2.30;;;30.80;53.20;;;;;;5053512;28;20541;-86
2022/08/08 10:30:54;;;;;;;2.50;2.30;;;;;;;;;;5054917;28;20454;-91
2022/08/08 10:33:30;;;;;;;1.90;1.80;;;29.40;49.10;;;;;;5053590;28;20458;-88
2022/08/08 10:35:59;;;;;;;2.57;2.37;;;;;;;;;;5054001;28;20478;-90
2022/08/08 10:38:29;;;;;;;1.83;1.70;;;29.90;47.60;;;;;;5057331;28;20442;-92
2022/08/08 10:40:57;;;;;;;229.00;143.03;;;;;;;;;;5064020;28;20808;-91
2022/08/08 10:43:37;;;;;;;233.17;126.40;;;;;;;;;;5072694;23;20848;-91
2022/08/08 10:46:24;;;;;;;3.10;1.90;;;;;;;;;;5061708;28;20450;-94
2022/08/08 10:48:53;;;;;;;1.87;1.77;;;29.90;42.40;;;;;;5060223;28;20523;-89
2022/08/08 10:51:20;;;;;;;2.03;1.57;;;;;;;;;;5058835;28;20500;-92
2022/08/08 10:53:49;;;;;;;3.10;2.10;;;;;;;;;;5060073;28;20445;-93
2022/08/08 10:56:16;;;;;;;3.10;2.80;;;;;;;;;;5058427;28;20470;-94
2022/08/08 10:58:48;;;;;;;1.90;1.70;;;;;;;;;;5054676;28;20925;-94
2022/08/08 11:01:15;;;;;;;2.13;2.03;;;;;;;;;;5057837;28;20454;-92
2022/08/08 11:03:43;;;;;;;3.73;1.93;;;29.10;40.20;;;;;;5059214;28;20462;-92
2022/08/08 11:06:11;;;;;;;2.77;1.87;;;28.00;41.60;;;;;;5059339;28;20465;-92
2022/08/08 11:08:40;;;;;;;2.50;2.30;;;;;;;;;;5070011;28;20456;-94
2022/08/08 11:11:09;;;;;;;6.30;2.10;;;27.60;43.60;;;;;;5066464;28;20942;-92
2022/08/08 11:13:40;;;;;;;4.63;2.87;;;;;;;;;;5076308;23;20490;-91
2022/08/08 11:16:11;;;;;;;2.50;2.30;;;;;;;;;;5070041;28;20461;-92
2022/08/08 11:18:39;;;;;;;2.77;2.57;;;27.20;47.20;;;;;;5069404;28;20451;-92
2022/08/08 11:21:07;;;;;;;2.47;2.27;;;;;;;;;;5080141;23;20517;-91
2022/08/08 11:23:35;;;;;;;2.57;2.37;;;;;;;;;;5065715;28;20473;-93
2022/08/08 11:26:04;;;;;;;196.43;114.57;;;30.20;58.00;;;;;;5062767;28;20457;-88
2022/08/08 11:28:35;;;;;;;228.40;114.73;;;30.10;61.00;;;;;;5061192;28;20446;-87
2022/08/08 11:31:02;;;;;;;70.13;60.60;;;;;;;;;;5057221;28;20449;-88
2022/08/08 11:33:32;;;;;;;8.17;7.43;;;28.40;49.30;;;;;;5056164;28;20501;-88
2022/08/08 11:36:00;;;;;;;3.13;1.73;;;;;;;;;;5056191;28;20442;-88
2022/08/08 11:38:27;;;;;;;2.70;1.80;;;;;;;;;;5056270;28;20815;-89
2022/08/08 11:40:54;;;;;;;1.73;1.63;;;28.60;36.30;;;;;;5055245;28;20450;-94
2022/08/08 11:43:23;;;;;;;1.80;1.70;;;29.20;33.20;;;;;;5075643;28;20426;-92
2022/08/08 11:45:51;;;;;;;1.83;1.73;;;;;;;;;;5079699;28;20462;-92
2022/08/08 11:48:19;;;;;;;2.40;2.10;;;;;;;;;;5074621;23;20490;-91
2022/08/08 11:50:49;;;;;;;1.80;1.70;;;29.30;37.20;;;;;;5069982;28;20922;-93
2022/08/08 11:53:16;;;;;;;1.77;1.67;;;;;;;;;;5067355;28;20486;-91
2022/08/08 11:55:47;;;;;;;1.47;1.37;;;28.30;40.20;;;;;;5067993;28;20457;-94
2022/08/08 11:58:14;;;;;;;2.53;2.10;;;;;;;;;;5066485;28;20485;-89
2022/08/08 12:00:44;;;;;;;2.00;1.90;;;;;;;;;;5064468;28;20453;-91
2022/08/08 12:03:17;;;;;;;3.93;1.80;;;28.40;37.00;;;;;;5066610;28;20435;-93
2022/08/08 12:05:45;;;;;;;3.47;2.13;;;;;;;;;;5061750;28;20443;-89
2022/08/08 12:08:14;;;;;;;3.30;2.10;;;;;;;;;;5059956;28;20442;-88
2022/08/08 12:10:47;;;;;;;3.00;2.00;;;29.40;38.50;;;;;;5054873;28;20447;-91
2022/08/08 12:13:16;;;;;;;4.43;3.93;;;30.00;46.90;;;;;;5062735;28;20495;-92
2022/08/08 12:15:47;;;;;;;1.90;1.53;;;;;;;;;;5055494;28;20450;-88
2022/08/08 12:18:15;;;;;;;1.70;1.60;;;30.20;37.50;;;;;;5055251;28;20451;-90
2022/08/08 12:20:43;;;;;;;2.17;1.97;;;;;;;;;;5056091;28;20446;-90
2022/08/08 12:23:10;;;;;;;2.17;2.07;;;;;;;;;;5055433;28;20478;-91
2022/08/08 12:25:39;;;;;;;2.43;1.93;;;;;;;;;;5054599;28;20949;-89
2022/08/08 12:28:11;;;;;;;1.97;1.87;;;30.10;43.90;;;;;;5056140;28;20454;-90
2022/08/08 12:30:39;;;;;;;2.73;2.40;;;30.30;38.90;;;;;;5055446;28;20462;-89
2022/08/08 12:33:16;;;;;;;3.93;2.30;;;30.60;50.30;;;;;;5055051;28;20494;-91
2022/08/08 12:35:44;;;;;;;13.80;12.73;;;;;;;;;;5054956;28;20446;-92
2022/08/08 12:38:12;;;;;;;4.47;3.87;;;;;;;;;;5055804;28;20483;-92
2022/08/08 12:40:43;;;;;;;8.50;7.63;;;29.90;41.00;;;;;;5053459;28;20442;-88
2022/08/08 12:43:11;;;;;;;3.97;3.73;;;30.20;43.00;;;;;;5054669;28;20930;-89
2022/08/08 12:45:39;;;;;;;6.07;3.10;;;;;;;;;;5054860;28;21021;-89
2022/08/08 12:48:08;;;;;;;2.90;1.67;;;29.60;35.30;;;;;;5054374;28;20461;-89
2022/08/08 12:50:40;;;;;;;1.83;1.73;;;29.40;28.90;;;;;;5053607;28;20439;-90
2022/08/08 12:53:17;;;;;;;1.80;1.70;;;;;;;;;;5054929;28;20498;-88
2022/08/08 12:55:53;;;;;;;2.33;1.60;;;;;;;;;;5053781;28;20454;-87
2022/08/08 12:58:20;;;;;;;2.53;1.90;;;;;;;;;;5054413;28;20979;-91
2022/08/08 13:00:48;;;;;;;1.80;1.70;;;;;;;;;;5054602;28;20454;-88
2022/08/08 13:03:23;;;;;;;10.67;9.83;;;;;;;;;;5054421;28;20450;-88
2022/08/08 13:05:50;;;;;;;17.27;16.00;;;;;;;;;;5054311;28;20458;-88
2022/08/08 13:08:19;;;;;;;170.77;97.77;;;31.30;38.60;;;;;;5054323;28;20805;-89
2022/08/08 13:10:53;;;;;;;229.83;115.00;;;;;;;;;;5053028;28;20500;-87
2022/08/08 13:13:29;;;;;;;226.70;111.03;;;;;;;;;;5054204;28;20603;-90
2022/08/08 13:15:56;;;;;;;225.67;116.30;;;;;;;;;;5055012;28;20457;-89
2022/08/08 13:18:23;;;;;;;221.80;112.77;;;;;;;;;;5054129;28;20455;-90
2022/08/08 13:20:51;;;;;;;222.30;116.30;;;;;;;;;;5054035;28;20815;-90
2022/08/08 13:23:19;;;;;;;213.50;114.77;;;;;;;;;;5054471;28;20846;-90
2022/08/08 13:25:47;;;;;;;221.70;113.00;;;;;;;;;;5055602;28;20465;-94
